Time;durP1;ratioP1;P1;durP2;ratioP2;P2;SDS_P1;SDS_P2;PMS_P1;PMS_P2;Temp;Humidity;BMP_temperature;BMP_pressure;BME280_temperature;BME280_humidity;BME280_pressure;Samples;Min_cycle;Max_cycle;Signal;HPM_P1;HPM_P2
2022/08/30 00:03:19;;;;;;;1.27;0.50;;;;;;;15.00;100.00;99842.72;1660177;84;21005;-60
2022/08/30 00:05:46;;;;;;;1.35;0.40;;;;;;;14.95;100.00;99840.37;1697397;83;20966;-60
2022/08/30 00:08:13;;;;;;;4.33;0.75;;;;;;;14.93;100.00;99850.17;1698778;83;21061;-61
2022/08/30 00:10:41;;;;;;;2.02;0.40;;;;;;;14.95;100.00;99842.16;1693725;83;21018;-61
2022/08/30 00:13:11;;;;;;;2.80;0.57;;;;;;;14.93;100.00;99852.80;1691994;84;20947;-60
2022/08/30 00:15:40;;;;;;;2.12;0.62;;;;;;;14.94;100.00;99849.21;1657184;84;21006;-61
2022/08/30 00:18:07;;;;;;;0.70;0.40;;;;;;;14.95;100.00;99846.95;1661917;84;21503;-61
2022/08/30 00:20:36;;;;;;;3.27;0.60;;;;;;;14.93;100.00;99850.17;1691838;84;21090;-60
2022/08/30 00:23:04;;;;;;;1.45;0.72;;;;;;;14.92;100.00;99849.77;1680005;83;20984;-61
2022/08/30 00:25:31;;;;;;;1.92;0.70;;;;;;;14.92;100.00;99851.09;1698718;83;20930;-61
2022/08/30 00:27:58;;;;;;;2.10;0.68;;;;;;;14.93;100.00;99858.05;1691837;83;20954;-60
2022/08/30 00:30:25;;;;;;;2.35;0.82;;;;;;;14.93;100.00;99854.11;1694868;83;21555;-60
2022/08/30 00:32:52;;;;;;;1.82;0.65;;;;;;;14.93;100.00;99856.73;1691971;83;21017;-61
2022/08/30 00:35:20;;;;;;;2.65;1.10;;;;;;;14.94;100.00;99856.27;1659933;84;20997;-61
2022/08/30 00:37:48;;;;;;;2.90;0.65;;;;;;;14.93;100.00;99859.37;1689425;83;21432;-61
2022/08/30 00:40:16;;;;;;;3.55;0.50;;;;;;;14.91;100.00;99855.98;1697293;83;20970;-61
2022/08/30 00:42:43;;;;;;;2.58;0.60;;;;;;;14.87;100.00;99861.08;1690538;83;21028;-61
2022/08/30 00:45:17;;;;;;;;;;;;;;;14.85;100.00;99874.77;1693138;83;21048;-60
2022/08/30 00:47:44;;;;;;;1.30;0.50;;;;;;;14.84;100.00;99869.13;1691333;83;20131;-60
2022/08/30 00:50:13;;;;;;;3.50;0.70;;;;;;;14.83;100.00;99863.98;1695496;83;28223;-60
2022/08/30 00:52:44;;;;;;;1.60;0.47;;;;;;;14.80;100.00;99872.90;1698021;83;20948;-61
2022/08/30 00:55:13;;;;;;;3.37;0.75;;;;;;;14.79;100.00;99868.59;1702449;82;20980;-61
2022/08/30 00:57:43;;;;;;;2.08;0.70;;;;;;;14.80;100.00;99869.44;1700926;82;21117;-61
2022/08/30 01:00:11;;;;;;;3.45;0.70;;;;;;;14.77;100.00;99876.56;1697325;83;20953;-60
2022/08/30 01:02:38;;;;;;;0.93;0.30;;;;;;;14.77;100.00;99873.09;1695218;83;20966;-61
2022/08/30 01:05:09;;;;;;;2.22;0.40;;;;;;;14.74;100.00;99870.66;1701884;83;20891;-61
2022/08/30 01:07:38;;;;;;;0.95;0.42;;;;;;;14.73;100.00;99880.77;1696629;83;20932;-61
2022/08/30 01:10:08;;;;;;;1.72;0.60;;;;;;;14.68;100.00;99877.61;1700472;83;21063;-61
2022/08/30 01:12:37;;;;;;;3.58;1.02;;;;;;;14.68;100.00;99884.19;1668394;84;20939;-61
2022/08/30 01:15:06;;;;;;;4.00;0.70;;;;;;;14.68;100.00;99886.81;1712048;83;20987;-60
2022/08/30 01:17:34;;;;;;;1.52;0.42;;;;;;;14.67;100.00;99888.57;1712754;83;20958;-61
2022/08/30 01:20:07;;;;;;;;;;;;;;;14.65;100.00;99887.00;1688478;83;21616;-61
2022/08/30 01:22:51;;;;;;;1.42;0.53;;;;;;;14.63;100.00;99880.98;1706013;82;20531;-60
2022/08/30 01:25:25;;;;;;;1.98;0.57;;;;;;;14.62;100.00;99888.48;1704185;83;20993;-61
2022/08/30 01:28:00;;;;;;;2.02;0.75;;;;;;;14.60;100.00;99886.44;1699159;83;20895;-60
2022/08/30 01:30:28;;;;;;;2.58;1.22;;;;;;;14.60;100.00;99890.38;1701745;83;20996;-60
2022/08/30 01:33:02;;;;;;;2.80;0.50;;;;;;;14.58;100.00;99885.20;1698311;83;20945;-60
2022/08/30 01:35:35;;;;;;;2.70;0.90;;;;;;;14.57;100.00;99884.00;1705195;83;21068;-60
2022/08/30 01:38:02;;;;;;;1.62;0.50;;;;;;;14.55;100.00;99888.86;1662996;84;21470;-61
2022/08/30 01:40:29;;;;;;;1.50;0.65;;;;;;;14.54;100.00;99888.50;1661681;85;20989;-61
2022/08/30 01:42:56;;;;;;;4.72;1.00;;;;;;;14.50;100.00;99889.57;1678413;84;20917;-60
2022/08/30 01:45:22;;;;;;;2.90;0.82;;;;;;;14.49;100.00;99883.95;1682069;83;20927;-60
2022/08/30 01:47:49;;;;;;;2.83;0.67;;;;;;;14.47;100.00;99888.45;1683324;83;21726;-61
2022/08/30 01:50:16;;;;;;;1.77;0.60;;;;;;;14.44;100.00;99888.64;1679922;84;21304;-61
2022/08/30 01:52:42;;;;;;;1.52;0.60;;;;;;;14.43;100.00;99886.95;1691990;83;20927;-61
2022/08/30 01:55:09;;;;;;;1.70;0.60;;;;;;;14.43;100.00;99885.64;1678788;84;20963;-60
2022/08/30 01:57:36;;;;;;;2.15;0.53;;;;;;;14.41;100.00;99886.20;1683254;84;21022;-61
2022/08/30 02:00:07;;;;;;;1.25;0.40;;;;;;;14.39;100.00;99882.81;1681792;84;21010;-61
2022/08/30 02:02:34;;;;;;;2.40;0.62;;;;;;;14.37;100.00;99888.65;1690519;83;20970;-61
2022/08/30 02:05:01;;;;;;;1.50;0.45;;;;;;;14.36;100.00;99888.25;1684784;83;20960;-61
2022/08/30 02:07:28;;;;;;;3.25;0.57;;;;;;;14.33;100.00;99877.94;1683080;84;21527;-60
2022/08/30 02:09:55;;;;;;;2.12;0.78;;;;;;;14.34;100.00;99887.52;1686134;83;21014;-61
2022/08/30 02:12:22;;;;;;;6.55;0.50;;;;;;;14.31;100.00;99887.67;1687607;84;21046;-61
2022/08/30 02:14:49;;;;;;;0.93;0.45;;;;;;;14.27;100.00;99888.81;1684082;84;20907;-60
2022/08/30 02:17:15;;;;;;;0.85;0.42;;;;;;;14.24;100.00;99885.06;1716898;83;20950;-61
2022/08/30 02:19:42;;;;;;;1.03;0.70;;;;;;;14.18;100.00;99893.31;1712217;83;20911;-61
2022/08/30 02:22:10;;;;;;;0.57;0.30;;;;;;;14.17;100.00;99898.16;1678626;84;20966;-60
2022/08/30 02:24:36;;;;;;;;;;;;;;;14.15;100.00;99902.69;1686946;83;21850;-61
2022/08/30 02:27:04;;;;;;;0.40;0.35;;;;;;;14.04;100.00;99905.47;1684045;83;20426;-61
2022/08/30 02:29:31;;;;;;;0.72;0.30;;;;;;;13.97;100.00;99896.24;1705202;83;21411;-61
2022/08/30 02:31:58;;;;;;;0.65;0.50;;;;;;;13.92;100.00;99895.69;1707196;83;20982;-61
2022/08/30 02:34:25;;;;;;;1.22;0.30;;;;;;;13.89;100.00;99890.59;1718428;82;20922;-61
2022/08/30 02:36:51;;;;;;;1.02;0.47;;;;;;;13.90;100.00;99894.92;1716857;83;20953;-60
2022/08/30 02:39:18;;;;;;;0.63;0.50;;;;;;;13.90;100.00;99901.48;1702524;83;20957;-60
2022/08/30 02:41:44;;;;;;;1.03;0.40;;;;;;;13.86;100.00;99883.77;1707964;81;21117;-61
2022/08/30 02:44:11;;;;;;;1.95;0.60;;;;;;;13.84;100.00;99895.29;1708160;81;20903;-61
2022/08/30 02:46:39;;;;;;;1.00;0.60;;;;;;;13.82;100.00;99910.27;1692738;84;20984;-61
2022/08/30 02:49:07;;;;;;;2.55;0.75;;;;;;;13.83;100.00;99900.14;1699500;83;21109;-61
2022/08/30 02:51:34;;;;;;;3.30;0.80;;;;;;;13.82;100.00;99907.64;1685249;83;21151;-60
2022/08/30 02:54:01;;;;;;;1.37;0.60;;;;;;;13.81;100.00;99895.47;1693466;82;21418;-61
2022/08/30 02:56:28;;;;;;;1.98;0.70;;;;;;;13.81;100.00;99903.34;1701231;82;20990;-61
2022/08/30 02:58:54;;;;;;;4.23;0.87;;;;;;;13.82;100.00;99896.67;1690568;84;21021;-61
2022/08/30 03:01:21;;;;;;;1.70;0.50;;;;;;;13.84;100.00;99904.48;1707199;83;21058;-60
2022/08/30 03:03:49;;;;;;;1.60;0.50;;;;;;;13.83;100.00;99896.20;1686866;84;21482;-61
2022/08/30 03:06:17;;;;;;;1.50;0.50;;;;;;;13.83;100.00;99897.52;1689668;83;21414;-62
2022/08/30 03:08:43;;;;;;;;;;;;;;;13.85;100.00;99906.16;1702773;83;20947;-61
2022/08/30 03:11:12;;;;;;;2.65;0.70;;;;;;;13.81;100.00;99909.91;1709492;82;20139;-61
2022/08/30 03:13:39;;;;;;;1.85;0.60;;;;;;;13.84;100.00;99913.66;1692815;83;21171;-60
2022/08/30 03:16:06;;;;;;;2.17;0.85;;;;;;;13.81;100.00;99913.84;1705039;83;20911;-61
2022/08/30 03:18:33;;;;;;;2.67;1.22;;;;;;;13.77;100.00;99920.19;1703045;83;21538;-60
2022/08/30 03:20:59;;;;;;;3.10;0.70;;;;;;;13.73;100.00;99916.06;1692734;82;21087;-60
2022/08/30 03:23:26;;;;;;;2.50;0.80;;;;;;;13.73;100.00;99910.81;1693834;82;20942;-61
2022/08/30 03:25:53;;;;;;;2.43;0.90;;;;;;;13.72;100.00;99909.94;1705335;83;20977;-61
2022/08/30 03:28:19;;;;;;;1.73;0.83;;;;;;;13.68;100.00;99915.47;1714090;83;21479;-61
2022/08/30 03:30:46;;;;;;;4.90;1.10;;;;;;;13.69;100.00;99919.77;1706452;83;20927;-61
2022/08/30 03:33:13;;;;;;;;;;;;;;;13.68;100.00;99908.91;1708098;82;21003;-60
2022/08/30 03:35:40;;;;;;;2.00;0.70;;;;;;;13.64;100.00;99912.19;1700911;83;20115;-59
2022/08/30 03:38:06;;;;;;;1.27;0.53;;;;;;;13.62;100.00;99904.38;1693747;82;21764;-60
2022/08/30 03:40:34;;;;;;;2.22;0.70;;;;;;;13.62;100.00;99913.56;1689685;84;21266;-61
2022/08/30 03:43:01;;;;;;;4.10;0.80;;;;;;;13.58;100.00;99905.50;1721620;83;20931;-60
2022/08/30 03:45:28;;;;;;;2.52;0.70;;;;;;;13.53;100.00;99910.16;1720155;82;21500;-60
2022/08/30 03:47:54;;;;;;;2.33;0.95;;;;;;;13.51;100.00;99897.59;1682676;84;20998;-61
2022/08/30 03:50:21;;;;;;;1.85;0.60;;;;;;;13.50;100.00;99896.34;1700555;83;21558;-61
2022/08/30 03:52:48;;;;;;;1.95;0.70;;;;;;;13.52;100.00;99904.52;1690942;83;20880;-60
2022/08/30 03:55:15;;;;;;;3.12;0.68;;;;;;;13.53;100.00;99908.85;1705515;82;20926;-60
2022/08/30 03:57:42;;;;;;;1.27;0.45;;;;;;;13.54;100.00;99911.84;1706690;82;21484;-60
2022/08/30 04:00:10;;;;;;;3.42;0.70;;;;;;;13.52;100.00;99910.23;1709180;82;21133;-61
2022/08/30 04:02:37;;;;;;;1.90;0.60;;;;;;;13.51;100.00;99913.33;1699416;83;21081;-60
2022/08/30 04:05:05;;;;;;;2.50;0.72;;;;;;;13.53;100.00;99910.16;1689967;83;20950;-60
2022/08/30 04:07:32;;;;;;;2.35;0.60;;;;;;;13.53;100.00;99912.78;1694621;83;20959;-60
2022/08/30 04:09:59;;;;;;;2.02;0.65;;;;;;;13.57;100.00;99914.29;1694456;83;20969;-60
2022/08/30 04:12:26;;;;;;;1.92;0.98;;;;;;;13.60;100.00;99908.86;1694437;83;21412;-61
2022/08/30 04:14:53;;;;;;;2.22;1.35;;;;;;;13.63;100.00;99920.49;1687684;83;21033;-60
2022/08/30 04:17:20;;;;;;;3.20;1.70;;;;;;;13.64;100.00;99923.52;1690111;83;21505;-60
2022/08/30 04:19:47;;;;;;;3.40;1.37;;;;;;;13.64;100.00;99923.52;1685665;84;21021;-61
2022/08/30 04:22:14;;;;;;;2.40;1.00;;;;;;;13.70;100.00;99926.73;1713526;83;21175;-60
2022/08/30 04:24:40;;;;;;;2.27;0.80;;;;;;;13.72;100.00;99922.22;1703498;83;21029;-60
2022/08/30 04:27:08;;;;;;;2.58;0.82;;;;;;;13.76;100.00;99927.69;1708295;83;21000;-60
2022/08/30 04:29:35;;;;;;;3.72;0.90;;;;;;;13.78;100.00;99929.73;1702438;83;20942;-60
2022/08/30 04:32:03;;;;;;;3.67;0.80;;;;;;;13.80;100.00;99933.13;1705988;83;20914;-61
2022/08/30 04:34:29;;;;;;;2.95;0.93;;;;;;;13.83;100.00;99943.45;1682046;83;21023;-60
2022/08/30 04:36:56;;;;;;;2.83;1.10;;;;;;;13.88;100.00;99942.72;1683486;84;20951;-60
2022/08/30 04:39:23;;;;;;;4.47;1.27;;;;;;;13.92;100.00;99944.25;1685874;84;21076;-60
2022/08/30 04:41:50;;;;;;;4.30;1.15;;;;;;;13.95;100.00;99939.27;1681915;83;20982;-61
2022/08/30 04:44:16;;;;;;;1.62;0.80;;;;;;;14.01;100.00;99945.02;1700023;82;20978;-61
2022/08/30 04:46:43;;;;;;;2.07;0.80;;;;;;;14.05;100.00;99943.89;1701597;83;21032;-61
2022/08/30 04:49:10;;;;;;;2.40;0.70;;;;;;;14.12;100.00;99943.56;1694112;82;20953;-61
2022/08/30 04:51:36;;;;;;;4.33;0.88;;;;;;;14.17;100.00;99942.36;1695347;83;21250;-61
2022/08/30 04:54:03;;;;;;;2.73;0.80;;;;;;;14.26;100.00;99943.59;1697948;83;20950;-61
2022/08/30 04:56:30;;;;;;;4.75;0.88;;;;;;;14.34;100.00;99940.05;1698352;83;21488;-61
2022/08/30 04:58:56;;;;;;;1.77;0.70;;;;;;;14.36;100.00;99942.09;1715360;83;21578;-61
2022/08/30 05:01:30;;;;;;;1.65;0.80;;;;;;;14.43;100.00;99942.13;1707346;83;20985;-61
2022/08/30 05:03:58;;;;;;;2.12;0.68;;;;;;;14.50;100.00;99943.91;1692198;83;21522;-60
2022/08/30 05:06:29;;;;;;;3.45;1.30;;;;;;;14.60;100.00;99946.88;1688601;83;20998;-61
2022/08/30 05:08:59;;;;;;;3.85;0.88;;;;;;;14.70;100.00;99950.61;1687047;84;20927;-61
2022/08/30 05:11:26;;;;;;;2.35;0.70;;;;;;;14.82;100.00;99949.89;1689012;84;20911;-60
2022/08/30 05:13:53;;;;;;;1.92;0.80;;;;;;;14.89;100.00;99956.44;1687849;82;20962;-59
2022/08/30 05:16:20;;;;;;;1.62;0.70;;;;;;;14.93;100.00;99955.33;1691038;84;21480;-61
2022/08/30 05:18:49;;;;;;;3.60;0.93;;;;;;;14.95;100.00;99961.31;1695330;84;20974;-60
2022/08/30 05:21:20;;;;;;;1.42;0.55;;;;;;;14.94;100.00;99962.27;1691627;84;20921;-60
2022/08/30 05:23:51;;;;;;;1.92;0.80;;;;;;;14.95;100.00;99963.11;1691848;84;20974;-60
2022/08/30 05:26:22;;;;;;;2.30;1.05;;;;;;;14.93;100.00;99971.11;1691992;83;21006;-60
2022/08/30 05:28:49;;;;;;;4.58;1.35;;;;;;;14.90;100.00;99963.41;1718601;83;21060;-61
2022/08/30 05:31:27;;;;;;;2.52;0.68;;;;;;;14.92;100.00;99965.93;1687496;83;20879;-60
2022/08/30 05:33:55;;;;;;;1.85;0.65;;;;;;;14.88;100.00;99971.85;1679912;84;21476;-60
2022/08/30 05:36:23;;;;;;;;;;;;;;;14.87;100.00;99979.81;1689937;83;21468;-60
2022/08/30 05:38:50;;;;;;;3.17;0.72;;;;;;;14.88;100.00;99981.05;1710159;83;20139;-61
2022/08/30 05:41:23;;;;;;;3.77;1.00;;;;;;;14.88;100.00;99987.63;1708200;82;21199;-60
2022/08/30 05:43:53;;;;;;;3.87;1.12;;;;;;;14.93;100.00;99986.88;1684363;83;21540;-61
2022/08/30 05:46:20;;;;;;;2.67;0.78;;;;;;;14.97;100.00;99985.73;1688683;83;20973;-60
2022/08/30 05:48:48;;;;;;;4.10;0.80;;;;;;;15.05;100.00;99984.44;1678756;83;21010;-60
2022/08/30 05:51:19;;;;;;;4.42;1.05;;;;;;;15.08;100.00;99980.30;1713562;82;21003;-61
2022/08/30 05:53:48;;;;;;;2.33;1.22;;;;;;;15.18;100.00;99977.48;1684078;83;21039;-62
2022/08/30 05:56:19;;;;;;;1.27;0.60;;;;;;;15.32;100.00;99980.54;1689818;83;20943;-61
2022/08/30 05:58:46;;;;;;;2.83;1.00;;;;;;;15.47;100.00;99980.06;1677000;84;20958;-62
2022/08/30 06:01:32;;;;;;;3.08;1.00;;;;;;;15.64;100.00;99977.20;1703519;83;21958;-62
2022/08/30 06:04:02;;;;;;;3.40;0.80;;;;;;;15.84;100.00;99987.31;1701530;83;20978;-61
2022/08/30 06:06:31;;;;;;;2.90;0.98;;;;;;;16.08;100.00;99986.67;1699635;82;21048;-62
2022/08/30 06:08:58;;;;;;;2.55;0.70;;;;;;;16.38;100.00;99986.88;1692447;83;21353;-62
2022/08/30 06:11:25;;;;;;;2.90;0.90;;;;;;;16.96;100.00;99990.36;1690393;83;20944;-62
2022/08/30 06:13:55;;;;;;;2.95;0.72;;;;;;;17.29;100.00;99985.48;1694196;84;20937;-62
2022/08/30 06:16:25;;;;;;;4.55;0.75;;;;;;;17.50;100.00;99989.20;1697909;83;20959;-62
2022/08/30 06:18:53;;;;;;;2.62;0.82;;;;;;;17.47;98.66;99997.34;1697454;83;21024;-62
2022/08/30 06:21:29;;;;;;;2.12;0.85;;;;;;;17.27;96.76;100004.05;1689680;84;21026;-63
2022/08/30 06:23:58;;;;;;;1.85;0.68;;;;;;;16.89;94.28;100008.06;1693041;84;20980;-61
2022/08/30 06:26:26;;;;;;;1.02;0.50;;;;;;;16.66;96.90;99998.55;1696654;83;21486;-61
2022/08/30 06:28:53;;;;;;;1.17;0.42;;;;;;;16.51;97.48;99991.70;1692782;84;20998;-62
2022/08/30 06:31:21;;;;;;;;;;;;;;;16.47;97.36;100007.36;1693313;84;20946;-61
2022/08/30 06:33:49;;;;;;;2.02;0.82;;;;;;;16.33;97.03;100006.48;1697794;83;20490;-62
2022/08/30 06:36:20;;;;;;;1.92;0.62;;;;;;;16.25;97.02;100010.10;1690562;84;20938;-61
2022/08/30 06:38:54;;;;;;;0.90;0.50;;;;;;;16.34;98.10;100016.07;1686858;83;20942;-61
2022/08/30 06:41:25;;;;;;;2.83;0.70;;;;;;;16.42;96.47;100018.68;1692436;83;20970;-61
2022/08/30 06:43:54;;;;;;;1.42;0.60;;;;;;;16.37;95.79;100018.14;1691954;83;21501;-61
2022/08/30 06:46:25;;;;;;;2.08;0.70;;;;;;;16.23;95.71;100022.52;1706708;83;20951;-62
2022/08/30 06:48:55;;;;;;;2.27;1.00;;;;;;;16.14;95.07;100023.14;1706990;82;20915;-61
2022/08/30 06:51:29;;;;;;;2.77;0.82;;;;;;;15.93;95.89;100024.52;1686584;84;20978;-61
2022/08/30 06:53:57;;;;;;;2.47;0.78;;;;;;;15.68;94.77;100023.45;1687468;83;20952;-61
2022/08/30 06:56:24;;;;;;;1.35;0.57;;;;;;;15.41;95.08;100029.50;1673878;83;22139;-61
2022/08/30 06:58:52;;;;;;;1.10;0.60;;;;;;;15.21;94.27;100028.58;1691236;83;21094;-61
2022/08/30 07:01:24;;;;;;;1.47;0.60;;;;;;;15.12;95.64;100029.12;1692055;82;20959;-61
2022/08/30 07:03:54;;;;;;;1.57;0.70;;;;;;;15.05;95.57;100031.77;1691458;83;21094;-61
2022/08/30 07:06:21;;;;;;;3.00;0.70;;;;;;;14.97;96.02;100026.97;1712620;82;21108;-61
2022/08/30 07:08:49;;;;;;;;;;;;;;;15.02;96.28;100029.33;1692472;83;21057;-61
2022/08/30 07:11:32;;;;;;;2.65;1.07;;;;;;;15.12;96.11;100035.70;1697296;83;20113;-61
2022/08/30 07:14:00;;;;;;;1.15;0.50;;;;;;;15.14;96.08;100039.09;1693780;84;20910;-61
2022/08/30 07:16:28;;;;;;;6.67;0.75;;;;;;;15.07;95.39;100041.70;1683422;84;20883;-62
2022/08/30 07:18:55;;;;;;;;;;;;;;;15.12;96.31;100046.22;1690733;83;20978;-61
2022/08/30 07:21:32;;;;;;;1.77;0.72;;;;;;;15.20;96.31;100043.97;1664756;84;21304;-62
2022/08/30 07:23:59;;;;;;;1.40;0.75;;;;;;;15.17;95.89;100048.11;1708337;83;20962;-61
2022/08/30 07:26:37;;;;;;;2.30;0.80;;;;;;;15.16;95.92;100039.85;1704395;83;21783;-61
2022/08/30 07:29:04;;;;;;;1.95;0.90;;;;;;;15.26;96.13;100044.91;1706473;83;20974;-61
2022/08/30 07:31:33;;;;;;;1.45;0.57;;;;;;;15.28;95.91;100049.61;1706461;83;20962;-62
2022/08/30 07:33:59;;;;;;;1.60;0.78;;;;;;;15.30;95.61;100054.31;1705447;83;21448;-61
2022/08/30 07:36:26;;;;;;;1.47;0.70;;;;;;;15.29;95.53;100055.27;1697585;82;20910;-61
2022/08/30 07:38:53;;;;;;;1.95;0.62;;;;;;;15.27;95.96;100061.08;1693658;82;21077;-62
2022/08/30 07:41:26;;;;;;;;;;;;;;;15.25;95.44;100062.95;1683072;83;20958;-61
2022/08/30 07:43:56;;;;;;;3.17;0.90;;;;;;;15.21;95.58;100061.47;1688578;84;20115;-61
2022/08/30 07:46:24;;;;;;;1.92;0.68;;;;;;;15.21;96.05;100072.83;1684922;84;21900;-61
2022/08/30 07:48:53;;;;;;;1.92;0.80;;;;;;;15.20;95.91;100072.91;1692688;84;20908;-61
2022/08/30 07:51:24;;;;;;;2.87;0.90;;;;;;;15.17;96.15;100058.16;1708046;83;20919;-62
2022/08/30 07:53:51;;;;;;;2.70;0.70;;;;;;;15.21;96.11;100069.36;1704917;83;20994;-62
2022/08/30 07:56:18;;;;;;;1.72;0.75;;;;;;;15.23;96.31;100070.08;1682416;84;21429;-61
2022/08/30 07:58:44;;;;;;;1.55;0.78;;;;;;;15.31;96.56;100065.67;1692476;84;21034;-61
2022/08/30 08:01:12;;;;;;;2.42;0.70;;;;;;;15.36;96.70;100065.77;1710303;83;20926;-61
2022/08/30 08:03:41;;;;;;;2.15;0.60;;;;;;;15.38;96.24;100069.16;1712098;83;20903;-60
2022/08/30 08:06:12;;;;;;;3.95;0.60;;;;;;;15.38;96.24;100067.84;1705932;83;21150;-60
2022/08/30 08:08:40;;;;;;;3.45;0.78;;;;;;;15.37;96.31;100071.88;1704402;83;21661;-61
2022/08/30 08:11:15;;;;;;;1.82;0.80;;;;;;;15.37;96.57;100066.61;1705367;82;21047;-63
2022/08/30 08:13:44;;;;;;;4.00;1.07;;;;;;;15.41;96.48;100066.34;1712297;83;21543;-62
2022/08/30 08:16:11;;;;;;;2.67;0.60;;;;;;;15.33;96.20;100068.59;1696901;83;20927;-61
2022/08/30 08:18:39;;;;;;;2.72;0.70;;;;;;;15.30;96.38;100072.73;1691205;83;21628;-63
2022/08/30 08:21:07;;;;;;;1.50;0.82;;;;;;;15.23;96.36;100074.03;1689083;84;20971;-62
2022/08/30 08:23:35;;;;;;;2.77;1.00;;;;;;;15.23;96.63;100081.92;1691818;84;21061;-62
2022/08/30 08:26:02;;;;;;;1.92;0.82;;;;;;;15.18;96.52;100082.70;1687604;83;21181;-62
2022/08/30 08:28:29;;;;;;;;;;;;;;;15.07;96.71;100086.41;1692007;83;20981;-62
2022/08/30 08:30:56;;;;;;;2.15;0.93;;;;;;;14.94;97.41;100089.78;1678234;83;20119;-62
2022/08/30 08:33:23;;;;;;;2.52;1.20;;;;;;;14.88;97.93;100088.84;1709599;82;20954;-62
2022/08/30 08:35:50;;;;;;;1.42;0.60;;;;;;;14.94;98.02;100084.53;1685303;83;21721;-62
2022/08/30 08:38:16;;;;;;;2.75;0.60;;;;;;;14.97;97.75;100089.60;1704433;83;20938;-61
2022/08/30 08:40:48;;;;;;;3.07;0.70;;;;;;;15.07;98.12;100098.24;1688932;83;21022;-62
2022/08/30 08:43:18;;;;;;;2.85;0.82;;;;;;;15.09;97.63;100096.38;1682141;83;21595;-62
2022/08/30 08:46:05;;;;;;;4.03;0.78;;;;;;;15.07;97.79;100095.62;1685039;83;20986;-62
2022/08/30 08:48:45;;;;;;;1.82;0.70;;;;;;;15.09;97.83;100099.01;1686645;83;21066;-61
2022/08/30 08:54:33;;;;;;;2.77;0.70;;;;;;;15.15;98.13;100110.47;1699656;83;20990;-61
2022/08/30 08:57:00;;;;;;;2.55;0.65;;;;;;;15.25;98.31;100110.30;1708691;82;20965;-62
2022/08/30 08:59:27;;;;;;;2.15;0.80;;;;;;;15.28;98.03;100112.75;1716891;82;21416;-62
2022/08/30 09:01:57;;;;;;;1.70;0.82;;;;;;;15.32;98.39;100106.38;1696830;83;21203;-61
2022/08/30 09:04:29;;;;;;;2.35;1.05;;;;;;;15.51;99.02;100105.23;1690432;83;20899;-61
2022/08/30 09:07:04;;;;;;;2.12;0.60;;;;;;;15.66;98.48;100104.30;1687082;84;20895;-61
2022/08/30 09:09:39;;;;;;;1.35;0.70;;;;;;;15.68;97.96;100115.59;1693179;83;21000;-61
2022/08/30 09:12:09;;;;;;;1.70;0.62;;;;;;;15.66;97.73;100114.83;1675333;83;20946;-61
2022/08/30 09:14:41;;;;;;;2.12;0.65;;;;;;;15.69;97.79;100106.77;1698763;83;21899;-61
2022/08/30 09:17:14;;;;;;;1.72;0.78;;;;;;;15.68;97.91;100112.95;1708411;82;20918;-61
2022/08/30 09:19:44;;;;;;;1.98;0.95;;;;;;;15.71;98.13;100118.06;1683864;84;20997;-61
2022/08/30 09:22:37;;;;;;;1.57;0.80;;;;;;;15.63;97.42;100117.66;1719263;82;21481;-62
2022/08/30 09:25:18;;;;;;;2.45;0.60;;;;;;;15.57;97.75;100124.14;1684645;83;21341;-61
2022/08/30 09:27:48;;;;;;;2.37;0.65;;;;;;;15.44;97.80;100123.20;1688433;84;21051;-61
2022/08/30 09:30:22;;;;;;;1.52;0.70;;;;;;;15.43;97.94;100129.38;1696397;84;21547;-62
2022/08/30 09:33:02;;;;;;;2.75;0.60;;;;;;;15.43;98.24;100127.62;1703581;83;20935;-62
2022/08/30 09:35:43;;;;;;;1.52;0.82;;;;;;;15.49;98.38;100125.53;1708628;82;20958;-61
2022/08/30 09:38:16;;;;;;;1.67;0.62;;;;;;;15.58;98.47;100125.83;1709719;82;21422;-62
2022/08/30 09:40:54;;;;;;;1.90;0.80;;;;;;;15.65;98.59;100129.75;1700577;83;21141;-62
2022/08/30 09:43:27;;;;;;;2.80;0.95;;;;;;;15.83;98.55;100130.92;1690008;84;20949;-62
2022/08/30 09:46:05;;;;;;;3.12;0.55;;;;;;;15.93;98.28;100135.13;1715545;82;20989;-62
2022/08/30 09:48:39;;;;;;;1.00;0.60;;;;;;;15.90;97.97;100128.27;1718582;82;21022;-62
2022/08/30 09:51:35;;;;;;;2.52;1.30;;;;;;;16.02;98.57;100129.27;1695512;83;21959;-61
2022/08/30 09:54:25;;;;;;;4.80;1.42;;;;;;;16.09;98.09;100133.22;1718136;82;20986;-61
2022/08/30 09:57:02;;;;;;;1.87;0.90;;;;;;;16.23;98.23;100126.59;1707922;83;20950;-62
2022/08/30 09:59:49;;;;;;;5.40;0.80;;;;;;;16.23;97.75;100126.59;1696335;83;20929;-61
2022/08/30 10:02:57;;;;;;;2.25;0.50;;;;;;;16.24;97.43;100128.27;1702979;83;21433;-61
2022/08/30 10:05:37;;;;;;;2.17;0.60;;;;;;;16.28;97.36;100136.38;1702141;83;20899;-62
2022/08/30 10:08:38;;;;;;;1.22;0.60;;;;;;;16.19;97.10;100133.02;1703458;83;21519;-62
2022/08/30 10:11:13;;;;;;;1.85;0.90;;;;;;;16.19;97.46;100136.09;1699473;83;21906;-61
2022/08/30 10:13:55;;;;;;;2.25;0.90;;;;;;;16.09;97.39;100135.86;1697909;83;20966;-61
2022/08/30 10:16:30;;;;;;;3.70;0.72;;;;;;;16.11;97.30;100136.13;1680020;83;20950;-61
2022/08/30 10:19:11;;;;;;;1.82;0.50;;;;;;;16.18;97.47;100136.58;1681135;84;20895;-61
2022/08/30 10:21:56;;;;;;;1.52;0.80;;;;;;;16.17;96.57;100140.16;1696021;84;21112;-61
2022/08/30 10:24:29;;;;;;;2.27;0.65;;;;;;;16.07;96.64;100137.73;1681222;83;20955;-61
2022/08/30 10:27:10;;;;;;;3.92;1.20;;;;;;;16.19;97.38;100139.61;1688267;83;20979;-61
2022/08/30 10:30:04;;;;;;;1.25;0.80;;;;;;;16.37;97.47;100138.04;1702969;83;20943;-60
2022/08/30 10:32:51;;;;;;;2.98;0.88;;;;;;;16.60;97.37;100149.23;1714775;83;20923;-61
2022/08/30 10:35:24;;;;;;;;;;;;;;;16.69;97.14;100142.52;1714699;82;20996;-61
2022/08/30 10:38:05;;;;;;;3.22;0.70;;;;;;;16.80;95.56;100149.75;1691798;83;20084;-61
2022/08/30 10:43:45;;;;;;;4.67;0.95;;;;;;;17.04;95.64;100153.39;1675789;84;20973;-61
2022/08/30 10:46:33;;;;;;;3.87;1.00;;;;;;;17.34;96.08;100149.16;1680054;84;21000;-61
2022/08/30 10:49:04;;;;;;;3.92;1.17;;;;;;;17.55;95.10;100144.17;1671358;84;21053;-61
2022/08/30 10:52:00;;;;;;;2.45;1.05;;;;;;;17.70;93.76;100153.29;1678884;84;21499;-60
2022/08/30 10:54:37;;;;;;;1.85;0.82;;;;;;;17.73;93.71;100155.72;1683094;83;20876;-61
2022/08/30 10:57:04;;;;;;;2.52;1.10;;;;;;;17.82;94.27;100160.41;1663445;84;20943;-61
2022/08/30 10:59:32;;;;;;;2.12;0.82;;;;;;;17.77;92.53;100158.05;1649175;85;21463;-61
2022/08/30 11:02:29;;;;;;;2.25;1.25;;;;;;;17.61;92.95;100158.27;1666177;84;21772;-61
2022/08/30 11:05:23;;;;;;;5.40;1.00;;;;;;;17.56;93.54;100153.80;1655526;86;20962;-61
2022/08/30 11:08:20;;;;;;;3.47;0.90;;;;;;;17.61;93.03;100160.06;1588208;88;21030;-62
2022/08/30 11:11:07;;;;;;;2.12;0.80;;;;;;;17.52;91.02;100156.27;1604042;88;20988;-61
2022/08/30 11:13:37;;;;;;;1.67;0.60;;;;;;;17.67;91.87;100162.27;1571335;90;20969;-62
2022/08/30 11:16:14;;;;;;;3.98;1.02;;;;;;;17.78;91.07;100160.20;1601690;88;21034;-61
2022/08/30 11:18:50;;;;;;;1.90;0.93;;;;;;;17.84;90.40;100168.59;1597193;88;20990;-60
2022/08/30 11:21:36;;;;;;;2.83;0.90;;;;;;;17.79;90.11;100164.10;1594745;88;21401;-62
2022/08/30 11:24:20;;;;;;;1.90;1.02;;;;;;;17.86;90.62;100171.95;1600196;88;21563;-62
2022/08/30 11:26:51;;;;;;;3.77;1.02;;;;;;;17.68;88.46;100164.81;1600796;88;20984;-62
2022/08/30 11:29:41;;;;;;;1.95;0.85;;;;;;;17.58;87.09;100174.32;1597659;88;21143;-62
2022/08/30 11:32:19;;;;;;;2.85;1.02;;;;;;;17.59;90.15;100173.39;1600132;88;21563;-62
2022/08/30 11:34:56;;;;;;;1.90;0.82;;;;;;;17.73;90.02;100174.20;1595952;88;21539;-61
2022/08/30 11:37:41;;;;;;;2.25;0.85;;;;;;;17.81;89.33;100179.83;1596286;88;21624;-61
2022/08/30 11:40:25;;;;;;;3.45;1.05;;;;;;;17.74;88.31;100182.03;1595349;88;20973;-61
2022/08/30 11:42:55;;;;;;;4.45;1.07;;;;;;;17.81;89.62;100182.47;1616086;87;21219;-61
2022/08/30 11:45:27;;;;;;;3.52;1.00;;;;;;;18.21;89.76;100180.98;1653127;83;20958;-61
2022/08/30 11:47:59;;;;;;;3.15;0.95;;;;;;;18.43;89.63;100177.16;1702429;83;20979;-61
2022/08/30 11:50:54;;;;;;;4.53;1.40;;;;;;;18.77;90.50;100172.06;1713029;82;20982;-62
2022/08/30 11:53:57;;;;;;;3.10;1.02;;;;;;;19.08;90.15;100165.80;1709956;83;20961;-61
2022/08/30 11:56:32;;;;;;;2.90;0.80;;;;;;;19.14;88.59;100160.03;1699836;82;21822;-61